createdAt,value
2022-08-25T00:01:32.215Z,6.75
2022-08-25T00:04:01.756Z,6.40
2022-08-25T00:06:28.987Z,6.47
2022-08-25T00:08:59.707Z,6.50
2022-08-25T00:11:30.304Z,6.95
2022-08-25T00:14:01.846Z,6.10
2022-08-25T00:16:31.655Z,6.50
2022-08-25T00:19:01.673Z,6.47
2022-08-25T00:21:29.229Z,7.25
2022-08-25T00:23:56.725Z,7.45
2022-08-25T00:26:24.423Z,6.75
2022-08-25T00:28:51.306Z,6.22
2022-08-25T00:31:23.604Z,5.75
2022-08-25T00:34:07.545Z,5.72
2022-08-25T00:36:35.392Z,6.50
2022-08-25T00:39:02.392Z,6.18
2022-08-25T00:41:29.293Z,5.85
2022-08-25T00:44:01.662Z,5.55
2022-08-25T00:46:31.718Z,5.97
2022-08-25T00:49:24.815Z,5.13
2022-08-25T00:52:00.501Z,5.70
2022-08-25T00:54:44.827Z,5.68
2022-08-25T00:57:14.259Z,5.43
2022-08-25T00:59:44.418Z,5.72
2022-08-25T01:02:13.978Z,5.72
2022-08-25T01:04:48.643Z,5.95
2022-08-25T01:07:18.796Z,5.57
2022-08-25T01:09:49.349Z,5.60
2022-08-25T01:12:16.717Z,5.53
2022-08-25T01:14:46.680Z,5.28
2022-08-25T01:17:14.127Z,5.30
2022-08-25T01:19:42.037Z,5.20
2022-08-25T01:22:10.679Z,5.90
2022-08-25T01:25:04.044Z,5.53
2022-08-25T01:27:30.970Z,7.13
2022-08-25T01:29:58.122Z,5.63
2022-08-25T01:32:25.144Z,5.80
2022-08-25T01:34:52.060Z,5.70
2022-08-25T01:37:19.324Z,5.93
2022-08-25T01:39:46.697Z,5.22
2022-08-25T01:42:54.825Z,6.13
2022-08-25T01:45:22.240Z,5.45
2022-08-25T01:47:49.307Z,6.45
2022-08-25T01:50:16.232Z,4.97
2022-08-25T01:53:08.998Z,5.57
2022-08-25T01:55:51.778Z,5.82
2022-08-25T01:58:27.878Z,6.63
2022-08-25T02:00:58.006Z,6.30
2022-08-25T02:03:26.291Z,6.15
2022-08-25T02:05:54.908Z,6.03
2022-08-25T02:08:23.273Z,6.03
2022-08-25T02:10:52.323Z,5.88
2022-08-25T02:13:20.883Z,6.28
2022-08-25T02:15:56.607Z,5.47
2022-08-25T02:18:23.932Z,6.07
2022-08-25T02:20:50.985Z,5.07
2022-08-25T02:23:17.949Z,6.10
2022-08-25T02:25:44.961Z,6.47
2022-08-25T02:28:11.899Z,6.45
2022-08-25T02:30:41.427Z,6.28
2022-08-25T02:33:09.228Z,5.78
2022-08-25T02:35:36.215Z,6.28
2022-08-25T02:38:04.014Z,5.18
2022-08-25T02:40:31.049Z,5.75
2022-08-25T02:42:58.096Z,5.20
2022-08-25T02:45:25.029Z,4.93
2022-08-25T02:47:52.339Z,5.95
2022-08-25T02:50:19.497Z,5.53
2022-08-25T02:52:46.583Z,5.50
2022-08-25T02:55:14.414Z,7.00
2022-08-25T02:57:42.612Z,6.43
2022-08-25T03:00:15.663Z,5.88
2022-08-25T03:02:43.025Z,5.75
2022-08-25T03:05:12.286Z,5.45
2022-08-25T03:07:39.299Z,5.43
2022-08-25T03:10:13.169Z,5.47
2022-08-25T03:12:41.692Z,5.30
2022-08-25T03:15:13.657Z,5.82
2022-08-25T03:17:40.853Z,5.28
2022-08-25T03:20:12.764Z,5.65
2022-08-25T03:22:39.707Z,5.97
2022-08-25T03:25:25.898Z,5.18
2022-08-25T03:27:52.890Z,5.85
2022-08-25T03:30:20.018Z,6.65
2022-08-25T03:32:47.754Z,6.13
2022-08-25T03:35:15.149Z,5.70
2022-08-25T03:37:42.096Z,5.68
2022-08-25T03:40:15.267Z,5.65
2022-08-25T03:42:45.432Z,5.45
2022-08-25T03:45:14.276Z,5.50
2022-08-25T03:47:42.243Z,5.65
2022-08-25T03:50:11.451Z,6.45
2022-08-25T03:52:42.442Z,5.65
2022-08-25T03:57:38.372Z,5.45
2022-08-25T04:00:10.527Z,5.57
2022-08-25T04:02:37.506Z,5.93
2022-08-25T04:05:04.837Z,5.90
2022-08-25T04:07:31.765Z,5.90
2022-08-25T04:09:58.672Z,5.53
2022-08-25T04:12:25.649Z,6.32
2022-08-25T04:14:52.859Z,6.55
2022-08-25T04:17:19.962Z,6.60
2022-08-25T04:19:46.898Z,6.32
2022-08-25T04:22:13.811Z,5.45
2022-08-25T04:24:40.921Z,6.40
2022-08-25T04:27:07.954Z,6.07
2022-08-25T04:29:35.065Z,6.90
2022-08-25T04:32:01.955Z,7.55
2022-08-25T04:34:31.447Z,6.85
2022-08-25T04:37:03.593Z,6.72
2022-08-25T04:39:30.887Z,7.50
2022-08-25T04:41:58.094Z,6.85
2022-08-25T04:44:25.524Z,7.93
2022-08-25T04:46:52.589Z,6.43
2022-08-25T04:49:19.541Z,6.68
2022-08-25T04:51:46.546Z,6.63
2022-08-25T04:54:17.141Z,7.20
2022-08-25T04:56:44.616Z,7.32
2022-08-25T04:59:13.691Z,6.15
2022-08-25T05:01:42.781Z,6.10
2022-08-25T05:04:27.701Z,6.05
2022-08-25T05:06:56.739Z,5.90
2022-08-25T05:09:23.776Z,6.90
2022-08-25T05:11:52.531Z,6.35
2022-08-25T05:14:23.219Z,6.43
2022-08-25T05:16:54.052Z,6.57
2022-08-25T05:19:21.045Z,6.60
2022-08-25T05:21:48.169Z,6.95
2022-08-25T05:24:15.257Z,5.95
2022-08-25T05:26:44.177Z,5.80
2022-08-25T05:29:11.785Z,7.50
2022-08-25T05:31:43.064Z,6.18
2022-08-25T05:34:10.369Z,5.65
2022-08-25T05:36:38.508Z,6.50
2022-08-25T05:39:05.510Z,6.50
2022-08-25T05:41:33.511Z,6.53
2022-08-25T05:44:00.564Z,6.15
2022-08-25T05:46:27.569Z,6.05
2022-08-25T05:48:59.208Z,6.05
2022-08-25T05:51:26.815Z,5.97
2022-08-25T05:53:54.222Z,6.10
2022-08-25T05:56:24.537Z,6.00
2022-08-25T05:58:54.753Z,5.60
2022-08-25T06:01:50.244Z,5.47
2022-08-25T06:04:18.174Z,5.90
2022-08-25T06:06:45.135Z,6.28
2022-08-25T06:09:14.071Z,5.72
2022-08-25T06:14:33.794Z,5.65
2022-08-25T06:17:01.200Z,5.50
2022-08-25T06:19:28.485Z,6.22
2022-08-25T06:21:58.917Z,6.22
2022-08-25T06:24:27.187Z,5.93
2022-08-25T06:26:54.761Z,5.43
2022-08-25T06:29:23.218Z,5.57
2022-08-25T06:31:50.833Z,6.88
2022-08-25T06:34:18.659Z,5.97
2022-08-25T06:36:48.933Z,7.43
2022-08-25T06:39:16.692Z,5.75
2022-08-25T06:41:43.593Z,5.47
2022-08-25T06:44:12.013Z,6.20
2022-08-25T06:46:39.549Z,6.38
2022-08-25T06:49:07.026Z,5.70
2022-08-25T06:51:36.256Z,5.53
2022-08-25T06:54:05.334Z,5.90
2022-08-25T06:56:32.762Z,5.65
2022-08-25T06:59:01.993Z,5.50
2022-08-25T07:01:41.417Z,6.10
2022-08-25T07:04:13.208Z,6.47
2022-08-25T07:06:41.396Z,6.03
2022-08-25T07:09:09.778Z,5.45
2022-08-25T07:11:37.002Z,6.55
2022-08-25T07:14:06.445Z,6.47
2022-08-25T07:16:35.109Z,5.95
2022-08-25T07:19:03.482Z,5.82
2022-08-25T07:21:35.467Z,6.40
2022-08-25T07:24:07.457Z,5.60
2022-08-25T07:26:38.307Z,6.20
2022-08-25T07:31:34.941Z,5.70
2022-08-25T07:34:20.983Z,6.70
2022-08-25T07:36:48.106Z,6.65
2022-08-25T07:39:15.075Z,6.82
2022-08-25T07:41:42.765Z,6.32
2022-08-25T07:44:11.517Z,6.50
2022-08-25T07:46:38.777Z,6.00
2022-08-25T07:49:16.415Z,6.10
2022-08-25T07:52:05.601Z,6.82
2022-08-25T07:54:34.540Z,7.13
2022-08-25T07:57:03.611Z,6.78
2022-08-25T07:59:31.174Z,6.53
2022-08-25T08:02:18.338Z,6.80
2022-08-25T08:04:49.087Z,5.50
2022-08-25T08:07:18.863Z,6.47
2022-08-25T08:09:46.412Z,7.25
2022-08-25T08:12:13.385Z,6.38
2022-08-25T08:14:44.974Z,7.78
2022-08-25T08:17:13.682Z,6.95
2022-08-25T08:19:44.460Z,6.72
2022-08-25T08:22:15.095Z,6.22
2022-08-25T08:24:54.713Z,7.00
2022-08-25T08:27:23.513Z,7.47
2022-08-25T08:29:50.521Z,7.03
2022-08-25T08:32:18.646Z,7.03
2022-08-25T08:34:51.220Z,7.22
2022-08-25T08:37:20.275Z,7.72
2022-08-25T08:39:51.344Z,8.95
2022-08-25T08:42:25.853Z,6.85
2022-08-25T08:45:25.709Z,7.53
2022-08-25T08:48:24.597Z,7.25
2022-08-25T08:54:18.747Z,8.85
2022-08-25T08:56:50.682Z,7.80
2022-08-25T08:59:29.997Z,7.75
2022-08-25T09:02:03.008Z,7.70
2022-08-25T09:04:48.602Z,8.15
2022-08-25T09:07:22.336Z,8.50
2022-08-25T09:09:52.217Z,7.85
2022-08-25T09:12:48.158Z,6.60
2022-08-25T09:15:21.253Z,8.07
2022-08-25T09:18:04.876Z,7.97
2022-08-25T09:20:43.224Z,8.02
2022-08-25T09:23:47.739Z,7.43
2022-08-25T09:27:03.211Z,7.63
2022-08-25T09:29:49.886Z,7.80
2022-08-25T09:32:24.257Z,8.57
2022-08-25T09:34:59.601Z,14.32
2022-08-25T09:37:26.958Z,9.57
2022-08-25T09:39:55.313Z,11.10
2022-08-25T09:42:48.198Z,10.63
2022-08-25T09:45:30.291Z,8.32
2022-08-25T09:47:57.116Z,9.03
2022-08-25T09:50:24.054Z,8.57
2022-08-25T09:52:53.513Z,8.50
2022-08-25T09:55:32.667Z,9.48
2022-08-25T09:58:00.170Z,14.18
2022-08-25T10:00:33.531Z,10.18
2022-08-25T10:03:12.399Z,8.23
2022-08-25T10:05:48.320Z,8.15
2022-08-25T10:08:43.305Z,8.25
2022-08-25T10:11:14.776Z,8.23
2022-08-25T10:13:43.876Z,9.32
2022-08-25T10:16:20.183Z,7.97
2022-08-25T10:19:06.711Z,8.18
2022-08-25T10:21:35.664Z,9.07
2022-08-25T10:24:03.224Z,8.77
2022-08-25T10:26:48.424Z,8.13
2022-08-25T10:29:34.305Z,8.77
2022-08-25T10:32:16.379Z,9.75
2022-08-25T10:34:53.929Z,8.20
2022-08-25T10:37:32.950Z,8.60
2022-08-25T10:40:21.925Z,8.18
2022-08-25T10:43:08.460Z,8.30
2022-08-25T10:45:56.927Z,8.52
2022-08-25T10:48:52.891Z,8.32
2022-08-25T10:51:40.161Z,8.95
2022-08-25T10:54:31.398Z,8.90
2022-08-25T10:57:23.271Z,8.85
2022-08-25T11:00:15.907Z,8.95
2022-08-25T11:03:16.899Z,7.18
2022-08-25T11:05:53.917Z,8.80
2022-08-25T11:09:07.194Z,8.30
2022-08-25T11:11:47.137Z,8.20
2022-08-25T11:14:21.125Z,8.98
2022-08-25T11:17:16.849Z,9.00
2022-08-25T11:19:55.360Z,8.48
2022-08-25T11:22:22.204Z,8.43
2022-08-25T11:25:01.148Z,9.15
2022-08-25T11:27:49.150Z,8.88
2022-08-25T11:30:18.836Z,9.85
2022-08-25T11:32:50.202Z,10.02
2022-08-25T11:35:26.234Z,8.65
2022-08-25T11:38:04.883Z,8.40
2022-08-25T11:40:34.911Z,7.60
2022-08-25T11:43:15.990Z,9.10
2022-08-25T11:46:07.846Z,8.30
2022-08-25T11:48:56.856Z,8.70
2022-08-25T11:51:41.191Z,8.73
2022-08-25T11:54:14.095Z,9.93
2022-08-25T11:56:41.917Z,8.68
2022-08-25T11:59:09.426Z,8.90
2022-08-25T12:01:45.974Z,9.35
2022-08-25T12:04:45.205Z,8.60
2022-08-25T12:07:23.441Z,8.10
2022-08-25T12:09:51.061Z,9.15
2022-08-25T12:12:39.114Z,8.55
2022-08-25T12:15:26.169Z,8.40
2022-08-25T12:18:16.777Z,9.30
2022-08-25T12:21:10.420Z,9.82
2022-08-25T12:23:45.517Z,10.20
2022-08-25T12:26:23.420Z,9.73
2022-08-25T12:29:16.619Z,8.90
2022-08-25T12:32:04.622Z,9.52
2022-08-25T12:34:50.252Z,9.00
2022-08-25T12:37:22.816Z,7.57
2022-08-25T12:39:49.702Z,8.13
2022-08-25T12:42:43.345Z,7.68
2022-08-25T12:45:25.459Z,7.85
2022-08-25T12:47:54.693Z,8.70
2022-08-25T12:50:38.886Z,8.73
2022-08-25T12:53:18.868Z,7.97
2022-08-25T12:56:04.863Z,8.77
2022-08-25T12:59:07.357Z,8.55
2022-08-25T13:02:07.429Z,8.80
2022-08-25T13:04:58.775Z,8.50
2022-08-25T13:07:44.285Z,8.68
2022-08-25T13:10:51.641Z,7.63
2022-08-25T13:13:44.830Z,7.43
2022-08-25T13:16:33.591Z,8.85
2022-08-25T13:19:05.134Z,8.27
2022-08-25T13:21:37.748Z,8.30
2022-08-25T13:24:19.549Z,7.10
2022-08-25T13:26:50.666Z,8.10
2022-08-25T13:32:12.655Z,8.25
2022-08-25T13:34:42.782Z,7.88
2022-08-25T13:37:30.451Z,8.50
2022-08-25T13:40:17.924Z,8.15
2022-08-25T13:42:55.643Z,8.00
2022-08-25T13:45:26.719Z,7.47
2022-08-25T13:47:55.708Z,7.28
2022-08-25T13:50:32.860Z,8.65
2022-08-25T13:53:06.672Z,9.13
2022-08-25T13:55:50.677Z,8.70
2022-08-25T13:58:24.755Z,7.63
2022-08-25T14:01:23.307Z,7.70
2022-08-25T14:04:25.970Z,7.63
2022-08-25T14:07:06.797Z,8.13
2022-08-25T14:09:55.062Z,7.85
2022-08-25T14:12:33.342Z,7.40
2022-08-25T14:15:03.993Z,8.10
2022-08-25T14:17:39.423Z,6.93
2022-08-25T14:20:29.299Z,7.10
2022-08-25T14:22:59.362Z,7.07
2022-08-25T14:25:28.317Z,7.85
2022-08-25T14:30:39.722Z,7.20
2022-08-25T14:33:10.875Z,8.10
2022-08-25T14:35:38.202Z,7.22
2022-08-25T14:38:11.003Z,7.57
2022-08-25T14:40:39.661Z,7.20
2022-08-25T14:43:09.517Z,7.15
2022-08-25T14:45:40.398Z,7.32
2022-08-25T14:48:17.238Z,7.70
2022-08-25T14:50:46.141Z,6.65
2022-08-25T14:53:13.245Z,6.90
2022-08-25T14:55:40.430Z,8.75
2022-08-25T14:58:08.835Z,7.95
2022-08-25T15:00:44.631Z,8.85
2022-08-25T15:03:17.610Z,7.50
2022-08-25T15:05:44.938Z,7.22
2022-08-25T15:08:33.311Z,6.80
2022-08-25T15:11:00.747Z,7.45
2022-08-25T15:13:28.317Z,7.20
2022-08-25T15:15:58.190Z,7.43
2022-08-25T15:18:25.935Z,6.82
2022-08-25T15:20:52.915Z,7.55
2022-08-25T15:23:20.743Z,7.43
2022-08-25T15:25:52.981Z,7.63
2022-08-25T15:30:49.460Z,7.28
2022-08-25T15:33:16.796Z,6.57
2022-08-25T15:35:44.033Z,7.13
2022-08-25T15:38:12.637Z,7.88
2022-08-25T15:40:39.918Z,7.25
2022-08-25T15:43:07.325Z,7.05
2022-08-25T15:45:36.377Z,7.25
2022-08-25T15:48:06.958Z,7.13
2022-08-25T15:50:36.836Z,7.55
2022-08-25T15:53:08.208Z,7.20
2022-08-25T15:55:39.533Z,7.03
2022-08-25T15:58:06.897Z,6.63
2022-08-25T16:00:36.094Z,6.65
2022-08-25T16:03:05.268Z,7.47
2022-08-25T16:05:48.249Z,7.30
2022-08-25T16:08:17.499Z,6.65
2022-08-25T16:10:46.698Z,6.88
2022-08-25T16:13:13.936Z,7.20
2022-08-25T16:15:46.248Z,6.78
2022-08-25T16:18:13.110Z,6.50
2022-08-25T16:20:45.177Z,6.15
2022-08-25T16:23:13.567Z,6.65
2022-08-25T16:25:42.314Z,7.47
2022-08-25T16:28:11.697Z,7.43
2022-08-25T16:30:42.510Z,7.30
2022-08-25T16:33:17.224Z,6.93
2022-08-25T16:35:44.208Z,6.70
2022-08-25T16:38:12.741Z,7.45
2022-08-25T16:40:41.401Z,6.18
2022-08-25T16:43:09.374Z,6.57
2022-08-25T16:45:36.392Z,6.60
2022-08-25T16:48:05.937Z,6.55
2022-08-25T16:50:34.638Z,7.03
2022-08-25T16:53:23.796Z,6.15
2022-08-25T16:56:00.845Z,6.95
2022-08-25T16:58:27.800Z,5.95
2022-08-25T17:01:10.102Z,6.55
2022-08-25T17:03:38.878Z,5.40
2022-08-25T17:06:10.987Z,5.82
2022-08-25T17:08:37.916Z,5.38
2022-08-25T17:11:06.579Z,5.60
2022-08-25T17:13:34.516Z,5.97
2022-08-25T17:16:03.141Z,6.72
2022-08-25T17:18:30.848Z,5.32
2022-08-25T17:21:07.489Z,5.47
2022-08-25T17:23:36.573Z,5.75
2022-08-25T17:26:04.790Z,6.00
2022-08-25T17:28:32.563Z,5.55
2022-08-25T17:31:00.216Z,5.82
2022-08-25T17:33:27.992Z,5.70
2022-08-25T17:35:56.596Z,5.50
2022-08-25T17:38:26.158Z,5.10
2022-08-25T17:40:58.183Z,5.57
2022-08-25T17:43:27.453Z,5.22
2022-08-25T17:45:56.966Z,5.32
2022-08-25T17:48:25.381Z,4.82
2022-08-25T17:50:54.077Z,4.57
2022-08-25T17:53:21.526Z,5.18
2022-08-25T17:56:01.498Z,5.55
2022-08-25T17:58:30.256Z,4.82
2022-08-25T18:00:58.193Z,4.80
2022-08-25T18:03:25.737Z,4.85
2022-08-25T18:05:52.911Z,4.90
2022-08-25T18:08:20.028Z,4.70
2022-08-25T18:10:59.096Z,5.53
2022-08-25T18:13:26.820Z,4.93
2022-08-25T18:15:55.471Z,5.15
2022-08-25T18:18:24.225Z,5.18
2022-08-25T18:20:51.443Z,5.30
2022-08-25T18:23:20.019Z,4.97
2022-08-25T18:25:49.515Z,5.32
2022-08-25T18:28:17.436Z,5.20
2022-08-25T18:30:44.596Z,4.13
2022-08-25T18:33:12.219Z,4.85
2022-08-25T18:35:39.184Z,4.60
2022-08-25T18:38:25.818Z,4.15
2022-08-25T18:41:01.013Z,6.03
2022-08-25T18:43:31.251Z,4.63
2022-08-25T18:46:04.833Z,5.13
2022-08-25T18:51:00.836Z,4.40
2022-08-25T18:53:37.188Z,4.22
2022-08-25T18:56:05.883Z,5.03
2022-08-25T18:58:33.141Z,4.90
2022-08-25T19:01:01.396Z,4.03
2022-08-25T19:03:29.598Z,4.82
2022-08-25T19:05:57.563Z,4.72
2022-08-25T19:08:25.537Z,4.68
2022-08-25T19:10:53.676Z,4.93
2022-08-25T19:13:22.700Z,4.50
2022-08-25T19:15:50.975Z,5.00
2022-08-25T19:18:26.170Z,5.20
2022-08-25T19:20:56.065Z,4.65
2022-08-25T19:23:22.944Z,4.60
2022-08-25T19:25:49.845Z,4.60
2022-08-25T19:28:17.081Z,5.55
2022-08-25T19:30:50.527Z,5.10
2022-08-25T19:33:42.270Z,5.47
2022-08-25T19:36:08.828Z,5.63
2022-08-25T19:38:37.198Z,5.40
2022-08-25T19:41:14.033Z,5.57
2022-08-25T19:43:54.963Z,5.55
2022-08-25T19:46:32.991Z,5.57
2022-08-25T19:49:12.897Z,5.45
2022-08-25T19:51:44.194Z,6.40
2022-08-25T19:54:13.794Z,5.90
2022-08-25T19:56:43.851Z,5.97
2022-08-25T19:59:40.737Z,5.85
2022-08-25T20:02:12.411Z,6.22
2022-08-25T20:04:43.494Z,6.30
2022-08-25T20:07:21.249Z,6.70
2022-08-25T20:09:48.682Z,7.13
2022-08-25T20:12:16.584Z,7.45
2022-08-25T20:14:44.822Z,7.10
2022-08-25T20:17:14.525Z,8.23
2022-08-25T20:19:52.539Z,8.02
2022-08-25T20:22:22.471Z,7.80
2022-08-25T20:24:55.831Z,7.75
2022-08-25T20:27:28.658Z,7.55
2022-08-25T20:29:55.570Z,7.28
2022-08-25T20:32:23.695Z,7.57
2022-08-25T20:34:53.983Z,8.70
2022-08-25T20:37:22.841Z,9.25
2022-08-25T20:39:49.809Z,9.00
2022-08-25T20:42:17.183Z,8.55
2022-08-25T20:44:44.150Z,8.75
2022-08-25T20:47:11.142Z,8.30
2022-08-25T20:49:39.693Z,8.05
2022-08-25T20:52:08.073Z,8.63
2022-08-25T20:54:35.316Z,9.23
2022-08-25T20:57:02.722Z,8.93
2022-08-25T20:59:29.873Z,8.68
2022-08-25T21:01:57.946Z,9.07
2022-08-25T21:04:29.955Z,8.63
2022-08-25T21:06:58.272Z,9.52
2022-08-25T21:09:26.568Z,8.82
2022-08-25T21:11:55.670Z,8.77
2022-08-25T21:14:24.537Z,9.95
2022-08-25T21:16:54.117Z,9.27
2022-08-25T21:19:26.838Z,9.70
2022-08-25T21:21:59.824Z,9.55
2022-08-25T21:24:28.551Z,9.23
2022-08-25T21:26:57.670Z,12.40
2022-08-25T21:29:28.701Z,11.38
2022-08-25T21:31:56.986Z,10.70
2022-08-25T21:34:24.167Z,12.20
2022-08-25T21:36:51.600Z,19.45
2022-08-25T21:39:18.824Z,10.43
2022-08-25T21:41:45.840Z,11.90
2022-08-25T21:44:14.000Z,12.35
2022-08-25T21:46:41.580Z,11.27
2022-08-25T21:49:20.620Z,13.35
2022-08-25T21:51:47.531Z,11.95
2022-08-25T21:54:17.077Z,11.50
2022-08-25T21:57:13.405Z,10.82
2022-08-25T21:59:41.359Z,10.32
2022-08-25T22:02:12.527Z,10.15
2022-08-25T22:04:40.530Z,11.02
2022-08-25T22:07:08.941Z,10.27
2022-08-25T22:09:36.392Z,10.57
2022-08-25T22:12:04.766Z,10.57
2022-08-25T22:14:32.454Z,11.18
2022-08-25T22:17:00.035Z,11.98
2022-08-25T22:19:27.229Z,10.88
2022-08-25T22:21:55.222Z,10.88
2022-08-25T22:24:22.564Z,10.90
2022-08-25T22:26:54.841Z,11.20
2022-08-25T22:29:25.464Z,11.10
2022-08-25T22:31:57.886Z,11.23
2022-08-25T22:34:32.205Z,11.73
2022-08-25T22:37:04.530Z,11.50
2022-08-25T22:39:34.226Z,12.07
2022-08-25T22:42:01.883Z,12.40
2022-08-25T22:44:28.845Z,12.45
2022-08-25T22:46:55.812Z,12.80
2022-08-25T22:49:23.745Z,12.82
2022-08-25T22:51:50.925Z,13.10
2022-08-25T22:54:18.045Z,12.88
2022-08-25T22:56:44.967Z,12.65
2022-08-25T22:59:13.757Z,12.60
2022-08-25T23:01:42.848Z,12.82
2022-08-25T23:04:10.052Z,11.68
2022-08-25T23:06:38.154Z,11.45
2022-08-25T23:09:07.686Z,11.82
2022-08-25T23:11:38.530Z,11.90
2022-08-25T23:14:08.360Z,11.63
2022-08-25T23:16:35.958Z,10.63
2022-08-25T23:19:03.039Z,11.65
2022-08-25T23:21:48.520Z,10.63
2022-08-25T23:24:29.300Z,10.82
2022-08-25T23:26:58.797Z,10.65
2022-08-25T23:29:25.734Z,10.52
2022-08-25T23:31:53.690Z,10.50
2022-08-25T23:34:22.195Z,10.95
2022-08-25T23:36:49.321Z,11.25
2022-08-25T23:39:16.326Z,11.00
2022-08-25T23:41:43.618Z,10.88
2022-08-25T23:44:11.899Z,10.73
2022-08-25T23:46:45.398Z,10.52
2022-08-25T23:49:18.182Z,10.93
2022-08-25T23:51:51.717Z,10.48
2022-08-25T23:54:20.914Z,10.45
2022-08-25T23:56:51.559Z,10.40
2022-08-25T23:59:20.246Z,10.55
